sensor_id;sensor_type;location;lat;lon;timestamp;P1;durP1;ratioP1;P2;durP2;ratioP2
69172;SDS011;56280;49.662;8.408;2023-02-01T00:02:24;20.40;;;18.80;;
69172;SDS011;56280;49.662;8.408;2023-02-01T00:04:50;20.50;;;19.03;;
69172;SDS011;56280;49.662;8.408;2023-02-01T00:07:15;19.67;;;18.27;;
69172;SDS011;56280;49.662;8.408;2023-02-01T00:09:40;20.63;;;19.20;;
69172;SDS011;56280;49.662;8.408;2023-02-01T00:12:06;19.57;;;18.13;;
69172;SDS011;56280;49.662;8.408;2023-02-01T00:14:31;19.87;;;18.37;;
69172;SDS011;56280;49.662;8.408;2023-02-01T00:17:03;19.77;;;18.48;;
69172;SDS011;56280;49.662;8.408;2023-02-01T00:19:29;20.23;;;18.73;;
69172;SDS011;56280;49.662;8.408;2023-02-01T00:21:54;19.97;;;18.47;;
69172;SDS011;56280;49.662;8.408;2023-02-01T00:24:19;20.10;;;18.70;;
69172;SDS011;56280;49.662;8.408;2023-02-01T00:26:44;19.37;;;17.97;;
69172;SDS011;56280;49.662;8.408;2023-02-01T00:29:12;20.40;;;18.80;;
69172;SDS011;56280;49.662;8.408;2023-02-01T00:31:39;20.10;;;18.67;;
69172;SDS011;56280;49.662;8.408;2023-02-01T00:34:04;21.37;;;19.77;;
69172;SDS011;56280;49.662;8.408;2023-02-01T00:36:30;20.08;;;18.67;;
69172;SDS011;56280;49.662;8.408;2023-02-01T00:38:56;20.05;;;18.63;;
69172;SDS011;56280;49.662;8.408;2023-02-01T00:41:21;20.57;;;19.07;;
69172;SDS011;56280;49.662;8.408;2023-02-01T00:43:48;20.15;;;18.65;;
69172;SDS011;56280;49.662;8.408;2023-02-01T00:46:15;19.88;;;18.30;;
69172;SDS011;56280;49.662;8.408;2023-02-01T00:48:41;20.08;;;18.67;;
69172;SDS011;56280;49.662;8.408;2023-02-01T00:51:12;20.63;;;19.03;;
69172;SDS011;56280;49.662;8.408;2023-02-01T00:53:44;18.50;;;17.20;;
69172;SDS011;56280;49.662;8.408;2023-02-01T00:56:10;18.85;;;17.40;;
69172;SDS011;56280;49.662;8.408;2023-02-01T00:58:36;19.77;;;18.27;;
69172;SDS011;56280;49.662;8.408;2023-02-01T01:03:46;19.13;;;17.53;;
69172;SDS011;56280;49.662;8.408;2023-02-01T01:06:16;19.20;;;17.70;;
69172;SDS011;56280;49.662;8.408;2023-02-01T01:08:44;21.10;;;19.60;;
69172;SDS011;56280;49.662;8.408;2023-02-01T01:11:17;21.13;;;19.53;;
69172;SDS011;56280;49.662;8.408;2023-02-01T01:13:45;20.27;;;18.88;;
69172;SDS011;56280;49.662;8.408;2023-02-01T01:16:12;19.92;;;18.42;;
69172;SDS011;56280;49.662;8.408;2023-02-01T01:18:37;20.40;;;18.90;;
69172;SDS011;56280;49.662;8.408;2023-02-01T01:21:06;20.87;;;19.17;;
69172;SDS011;56280;49.662;8.408;2023-02-01T01:23:32;21.15;;;19.55;;
69172;SDS011;56280;49.662;8.408;2023-02-01T01:25:58;20.73;;;19.17;;
69172;SDS011;56280;49.662;8.408;2023-02-01T01:28:24;20.80;;;19.23;;
69172;SDS011;56280;49.662;8.408;2023-02-01T01:30:49;19.88;;;18.40;;
69172;SDS011;56280;49.662;8.408;2023-02-01T01:33:14;21.33;;;19.80;;
69172;SDS011;56280;49.662;8.408;2023-02-01T01:35:40;19.88;;;18.35;;
69172;SDS011;56280;49.662;8.408;2023-02-01T01:38:05;19.73;;;18.27;;
69172;SDS011;56280;49.662;8.408;2023-02-01T01:40:30;21.17;;;19.57;;
69172;SDS011;56280;49.662;8.408;2023-02-01T01:42:56;21.13;;;19.38;;
69172;SDS011;56280;49.662;8.408;2023-02-01T01:47:56;19.25;;;17.75;;
69172;SDS011;56280;49.662;8.408;2023-02-01T01:50:38;18.48;;;17.00;;
69172;SDS011;56280;49.662;8.408;2023-02-01T01:53:10;19.15;;;17.80;;
69172;SDS011;56280;49.662;8.408;2023-02-01T01:55:40;18.40;;;17.10;;
69172;SDS011;56280;49.662;8.408;2023-02-01T01:58:10;19.23;;;17.73;;
69172;SDS011;56280;49.662;8.408;2023-02-01T02:00:38;18.00;;;16.60;;
69172;SDS011;56280;49.662;8.408;2023-02-01T02:03:11;21.38;;;19.85;;
69172;SDS011;56280;49.662;8.408;2023-02-01T02:05:37;17.97;;;16.57;;
69172;SDS011;56280;49.662;8.408;2023-02-01T02:08:03;21.83;;;20.33;;
69172;SDS011;56280;49.662;8.408;2023-02-01T02:10:28;18.90;;;17.40;;
69172;SDS011;56280;49.662;8.408;2023-02-01T02:13:13;20.05;;;18.65;;
69172;SDS011;56280;49.662;8.408;2023-02-01T02:26:35;19.13;;;17.65;;
69172;SDS011;56280;49.662;8.408;2023-02-01T02:37:28;20.08;;;18.58;;
69172;SDS011;56280;49.662;8.408;2023-02-01T02:40:03;20.77;;;19.10;;
69172;SDS011;56280;49.662;8.408;2023-02-01T02:42:55;19.90;;;18.20;;
69172;SDS011;56280;49.662;8.408;2023-02-01T02:45:49;21.23;;;19.73;;
69172;SDS011;56280;49.662;8.408;2023-02-01T02:48:47;20.88;;;19.17;;
69172;SDS011;56280;49.662;8.408;2023-02-01T02:51:21;20.77;;;19.08;;
69172;SDS011;56280;49.662;8.408;2023-02-01T02:54:13;20.52;;;19.00;;
69172;SDS011;56280;49.662;8.408;2023-02-01T02:57:02;20.13;;;18.50;;
69172;SDS011;56280;49.662;8.408;2023-02-01T02:59:49;20.38;;;18.70;;
69172;SDS011;56280;49.662;8.408;2023-02-01T03:02:34;21.05;;;19.45;;
69172;SDS011;56280;49.662;8.408;2023-02-01T03:05:18;19.63;;;17.92;;
69172;SDS011;56280;49.662;8.408;2023-02-01T03:10:37;22.42;;;20.70;;
69172;SDS011;56280;49.662;8.408;2023-02-01T03:13:06;21.43;;;19.73;;
69172;SDS011;56280;49.662;8.408;2023-02-01T03:15:37;21.15;;;19.40;;
69172;SDS011;56280;49.662;8.408;2023-02-01T03:18:13;22.58;;;20.80;;
69172;SDS011;56280;49.662;8.408;2023-02-01T03:20:43;21.77;;;20.08;;
69172;SDS011;56280;49.662;8.408;2023-02-01T03:23:13;21.23;;;19.50;;
69172;SDS011;56280;49.662;8.408;2023-02-01T03:25:40;20.90;;;19.25;;
69172;SDS011;56280;49.662;8.408;2023-02-01T03:28:07;21.05;;;19.17;;
69172;SDS011;56280;49.662;8.408;2023-02-01T03:30:36;20.90;;;19.30;;
69172;SDS011;56280;49.662;8.408;2023-02-01T03:33:03;21.30;;;19.70;;
69172;SDS011;56280;49.662;8.408;2023-02-01T03:35:39;22.08;;;20.27;;
69172;SDS011;56280;49.662;8.408;2023-02-01T03:38:20;22.55;;;20.65;;
69172;SDS011;56280;49.662;8.408;2023-02-01T03:40:55;22.08;;;20.30;;
69172;SDS011;56280;49.662;8.408;2023-02-01T03:43:36;22.40;;;20.80;;
69172;SDS011;56280;49.662;8.408;2023-02-01T03:46:28;20.93;;;19.23;;
69172;SDS011;56280;49.662;8.408;2023-02-01T03:49:00;20.83;;;18.98;;
69172;SDS011;56280;49.662;8.408;2023-02-01T03:51:29;21.48;;;19.65;;
69172;SDS011;56280;49.662;8.408;2023-02-01T03:53:57;21.33;;;19.33;;
69172;SDS011;56280;49.662;8.408;2023-02-01T03:56:24;23.02;;;21.02;;
69172;SDS011;56280;49.662;8.408;2023-02-01T03:58:52;22.10;;;20.20;;
69172;SDS011;56280;49.662;8.408;2023-02-01T04:01:24;21.73;;;19.75;;
69172;SDS011;56280;49.662;8.408;2023-02-01T04:03:51;22.58;;;20.52;;
69172;SDS011;56280;49.662;8.408;2023-02-01T04:06:17;23.20;;;21.00;;
69172;SDS011;56280;49.662;8.408;2023-02-01T04:08:42;22.57;;;20.57;;
69172;SDS011;56280;49.662;8.408;2023-02-01T04:11:07;22.63;;;20.47;;
69172;SDS011;56280;49.662;8.408;2023-02-01T04:13:33;23.20;;;21.10;;
69172;SDS011;56280;49.662;8.408;2023-02-01T04:15:58;22.57;;;20.57;;
69172;SDS011;56280;49.662;8.408;2023-02-01T04:18:23;23.10;;;21.10;;
69172;SDS011;56280;49.662;8.408;2023-02-01T04:20:49;23.83;;;21.63;;
69172;SDS011;56280;49.662;8.408;2023-02-01T04:23:14;24.17;;;22.17;;
69172;SDS011;56280;49.662;8.408;2023-02-01T04:25:40;24.98;;;22.98;;
69172;SDS011;56280;49.662;8.408;2023-02-01T04:28:06;25.63;;;23.53;;
69172;SDS011;56280;49.662;8.408;2023-02-01T04:30:31;24.55;;;22.38;;
69172;SDS011;56280;49.662;8.408;2023-02-01T04:32:57;23.92;;;21.73;;
69172;SDS011;56280;49.662;8.408;2023-02-01T04:35:22;23.50;;;21.47;;
69172;SDS011;56280;49.662;8.408;2023-02-01T04:37:47;24.57;;;22.20;;
69172;SDS011;56280;49.662;8.408;2023-02-01T04:40:13;23.50;;;21.20;;
69172;SDS011;56280;49.662;8.408;2023-02-01T04:42:38;23.63;;;21.53;;
69172;SDS011;56280;49.662;8.408;2023-02-01T04:45:03;24.07;;;21.80;;
69172;SDS011;56280;49.662;8.408;2023-02-01T04:47:29;22.88;;;20.95;;
69172;SDS011;56280;49.662;8.408;2023-02-01T04:49:54;22.73;;;20.63;;
69172;SDS011;56280;49.662;8.408;2023-02-01T04:52:20;23.27;;;21.17;;
69172;SDS011;56280;49.662;8.408;2023-02-01T04:54:45;20.40;;;18.83;;
69172;SDS011;56280;49.662;8.408;2023-02-01T04:57:10;18.90;;;17.10;;
69172;SDS011;56280;49.662;8.408;2023-02-01T04:59:38;18.27;;;16.60;;
69172;SDS011;56280;49.662;8.408;2023-02-01T05:02:03;18.93;;;17.13;;
69172;SDS011;56280;49.662;8.408;2023-02-01T05:04:29;18.50;;;17.10;;
69172;SDS011;56280;49.662;8.408;2023-02-01T05:06:54;20.07;;;18.47;;
69172;SDS011;56280;49.662;8.408;2023-02-01T05:09:19;20.40;;;18.77;;
69172;SDS011;56280;49.662;8.408;2023-02-01T05:11:46;19.55;;;17.77;;
69172;SDS011;56280;49.662;8.408;2023-02-01T05:14:30;20.98;;;19.27;;
69172;SDS011;56280;49.662;8.408;2023-02-01T05:16:55;20.43;;;18.63;;
69172;SDS011;56280;49.662;8.408;2023-02-01T05:19:21;19.90;;;18.20;;
69172;SDS011;56280;49.662;8.408;2023-02-01T05:21:46;19.93;;;18.17;;
69172;SDS011;56280;49.662;8.408;2023-02-01T05:24:11;19.03;;;17.53;;
69172;SDS011;56280;49.662;8.408;2023-02-01T05:26:44;19.70;;;18.10;;
69172;SDS011;56280;49.662;8.408;2023-02-01T05:29:10;19.90;;;18.38;;
69172;SDS011;56280;49.662;8.408;2023-02-01T05:31:36;18.93;;;17.33;;
69172;SDS011;56280;49.662;8.408;2023-02-01T05:34:02;21.45;;;19.80;;
69172;SDS011;56280;49.662;8.408;2023-02-01T05:36:27;19.10;;;17.67;;
69172;SDS011;56280;49.662;8.408;2023-02-01T05:38:53;20.30;;;18.70;;
69172;SDS011;56280;49.662;8.408;2023-02-01T05:41:18;19.30;;;17.80;;
69172;SDS011;56280;49.662;8.408;2023-02-01T05:43:43;21.63;;;19.93;;
69172;SDS011;56280;49.662;8.408;2023-02-01T05:46:09;19.17;;;17.37;;
69172;SDS011;56280;49.662;8.408;2023-02-01T05:48:40;20.08;;;18.30;;
69172;SDS011;56280;49.662;8.408;2023-02-01T05:51:07;20.63;;;19.00;;
69172;SDS011;56280;49.662;8.408;2023-02-01T05:53:33;21.90;;;20.00;;
69172;SDS011;56280;49.662;8.408;2023-02-01T05:55:59;21.13;;;19.40;;
69172;SDS011;56280;49.662;8.408;2023-02-01T05:58:24;22.60;;;20.40;;
69172;SDS011;56280;49.662;8.408;2023-02-01T06:00:49;21.70;;;19.80;;
69172;SDS011;56280;49.662;8.408;2023-02-01T06:03:15;21.98;;;20.10;;
69172;SDS011;56280;49.662;8.408;2023-02-01T06:05:40;22.30;;;20.33;;
69172;SDS011;56280;49.662;8.408;2023-02-01T06:08:05;22.77;;;20.77;;
69172;SDS011;56280;49.662;8.408;2023-02-01T06:10:32;23.13;;;21.13;;
69172;SDS011;56280;49.662;8.408;2023-02-01T06:12:58;24.20;;;22.00;;
69172;SDS011;56280;49.662;8.408;2023-02-01T06:15:23;22.87;;;20.77;;
69172;SDS011;56280;49.662;8.408;2023-02-01T06:17:48;22.90;;;20.90;;
69172;SDS011;56280;49.662;8.408;2023-02-01T06:20:14;22.50;;;20.47;;
69172;SDS011;56280;49.662;8.408;2023-02-01T06:22:39;22.52;;;20.42;;
69172;SDS011;56280;49.662;8.408;2023-02-01T06:25:06;26.40;;;24.30;;
69172;SDS011;56280;49.662;8.408;2023-02-01T06:27:33;23.60;;;21.60;;
69172;SDS011;56280;49.662;8.408;2023-02-01T06:29:59;24.20;;;21.95;;
69172;SDS011;56280;49.662;8.408;2023-02-01T06:32:24;23.73;;;21.73;;
69172;SDS011;56280;49.662;8.408;2023-02-01T06:34:49;24.50;;;22.50;;
69172;SDS011;56280;49.662;8.408;2023-02-01T06:37:17;24.63;;;22.42;;
69172;SDS011;56280;49.662;8.408;2023-02-01T06:39:42;25.17;;;22.97;;
69172;SDS011;56280;49.662;8.408;2023-02-01T06:42:08;23.17;;;21.17;;
69172;SDS011;56280;49.662;8.408;2023-02-01T06:44:33;23.73;;;21.73;;
69172;SDS011;56280;49.662;8.408;2023-02-01T06:46:58;22.07;;;19.97;;
69172;SDS011;56280;49.662;8.408;2023-02-01T06:49:23;24.07;;;21.97;;
69172;SDS011;56280;49.662;8.408;2023-02-01T06:51:49;23.33;;;21.23;;
69172;SDS011;56280;49.662;8.408;2023-02-01T06:54:14;23.70;;;21.50;;
69172;SDS011;56280;49.662;8.408;2023-02-01T06:56:39;22.13;;;20.13;;
69172;SDS011;56280;49.662;8.408;2023-02-01T06:59:05;24.73;;;22.57;;
69172;SDS011;56280;49.662;8.408;2023-02-01T07:01:32;23.75;;;21.42;;
69172;SDS011;56280;49.662;8.408;2023-02-01T07:03:58;25.30;;;22.87;;
69172;SDS011;56280;49.662;8.408;2023-02-01T07:06:23;25.57;;;23.13;;
69172;SDS011;56280;49.662;8.408;2023-02-01T07:08:48;25.13;;;22.77;;
69172;SDS011;56280;49.662;8.408;2023-02-01T07:11:14;23.25;;;20.90;;
69172;SDS011;56280;49.662;8.408;2023-02-01T07:13:41;25.48;;;22.90;;
69172;SDS011;56280;49.662;8.408;2023-02-01T07:16:13;23.47;;;21.37;;
69172;SDS011;56280;49.662;8.408;2023-02-01T07:18:40;23.33;;;20.50;;
69172;SDS011;56280;49.662;8.408;2023-02-01T07:21:05;25.80;;;23.50;;
69172;SDS011;56280;49.662;8.408;2023-02-01T07:23:31;23.85;;;21.30;;
69172;SDS011;56280;49.662;8.408;2023-02-01T07:25:58;20.70;;;18.65;;
69172;SDS011;56280;49.662;8.408;2023-02-01T07:28:25;23.90;;;21.77;;
69172;SDS011;56280;49.662;8.408;2023-02-01T07:30:52;23.33;;;20.98;;
69172;SDS011;56280;49.662;8.408;2023-02-01T07:33:18;22.90;;;20.53;;
69172;SDS011;56280;49.662;8.408;2023-02-01T07:35:48;24.13;;;21.73;;
69172;SDS011;56280;49.662;8.408;2023-02-01T07:38:14;24.50;;;22.30;;
69172;SDS011;56280;49.662;8.408;2023-02-01T07:40:40;21.53;;;19.33;;
69172;SDS011;56280;49.662;8.408;2023-02-01T07:43:06;23.57;;;21.07;;
69172;SDS011;56280;49.662;8.408;2023-02-01T07:45:32;20.98;;;18.95;;
69172;SDS011;56280;49.662;8.408;2023-02-01T07:47:58;23.45;;;21.10;;
69172;SDS011;56280;49.662;8.408;2023-02-01T07:50:24;21.40;;;18.67;;
69172;SDS011;56280;49.662;8.408;2023-02-01T07:52:49;22.30;;;20.10;;
69172;SDS011;56280;49.662;8.408;2023-02-01T07:55:14;22.17;;;19.83;;
69172;SDS011;56280;49.662;8.408;2023-02-01T07:57:39;21.43;;;19.33;;
69172;SDS011;56280;49.662;8.408;2023-02-01T08:00:05;22.47;;;19.43;;
69172;SDS011;56280;49.662;8.408;2023-02-01T08:02:49;22.42;;;19.92;;
69172;SDS011;56280;49.662;8.408;2023-02-01T08:05:14;22.50;;;20.20;;
69172;SDS011;56280;49.662;8.408;2023-02-01T08:07:40;23.90;;;21.17;;
69172;SDS011;56280;49.662;8.408;2023-02-01T08:10:05;22.60;;;20.00;;
69172;SDS011;56280;49.662;8.408;2023-02-01T08:12:35;23.70;;;20.98;;
69172;SDS011;56280;49.662;8.408;2023-02-01T08:15:01;24.60;;;22.10;;
69172;SDS011;56280;49.662;8.408;2023-02-01T08:17:26;25.83;;;22.33;;
69172;SDS011;56280;49.662;8.408;2023-02-01T08:19:53;25.87;;;23.33;;
69172;SDS011;56280;49.662;8.408;2023-02-01T08:22:18;24.52;;;22.02;;
69172;SDS011;56280;49.662;8.408;2023-02-01T08:24:44;23.60;;;21.13;;
69172;SDS011;56280;49.662;8.408;2023-02-01T08:27:09;26.77;;;24.00;;
69172;SDS011;56280;49.662;8.408;2023-02-01T08:29:34;24.37;;;20.63;;
69172;SDS011;56280;49.662;8.408;2023-02-01T08:31:59;24.40;;;21.80;;
69172;SDS011;56280;49.662;8.408;2023-02-01T08:34:25;25.33;;;22.80;;
69172;SDS011;56280;49.662;8.408;2023-02-01T08:36:51;24.63;;;22.13;;
69172;SDS011;56280;49.662;8.408;2023-02-01T08:39:22;23.55;;;21.05;;
69172;SDS011;56280;49.662;8.408;2023-02-01T08:41:47;22.63;;;20.20;;
69172;SDS011;56280;49.662;8.408;2023-02-01T08:44:32;22.27;;;19.90;;
69172;SDS011;56280;49.662;8.408;2023-02-01T08:46:58;24.53;;;22.17;;
69172;SDS011;56280;49.662;8.408;2023-02-01T08:49:23;24.93;;;21.03;;
69172;SDS011;56280;49.662;8.408;2023-02-01T08:51:48;25.77;;;21.07;;
69172;SDS011;56280;49.662;8.408;2023-02-01T08:54:13;23.43;;;20.97;;
69172;SDS011;56280;49.662;8.408;2023-02-01T08:56:39;24.53;;;20.87;;
69172;SDS011;56280;49.662;8.408;2023-02-01T08:59:04;26.03;;;22.27;;
69172;SDS011;56280;49.662;8.408;2023-02-01T09:01:29;30.20;;;24.63;;
69172;SDS011;56280;49.662;8.408;2023-02-01T09:03:54;28.23;;;23.63;;
69172;SDS011;56280;49.662;8.408;2023-02-01T09:06:20;23.87;;;21.07;;
69172;SDS011;56280;49.662;8.408;2023-02-01T09:08:45;29.10;;;22.93;;
69172;SDS011;56280;49.662;8.408;2023-02-01T09:11:12;42.30;;;27.17;;
69172;SDS011;56280;49.662;8.408;2023-02-01T09:13:40;36.57;;;24.73;;
69172;SDS011;56280;49.662;8.408;2023-02-01T09:16:05;33.37;;;24.60;;
69172;SDS011;56280;49.662;8.408;2023-02-01T09:18:30;30.00;;;23.90;;
69172;SDS011;56280;49.662;8.408;2023-02-01T09:20:55;30.27;;;24.50;;
69172;SDS011;56280;49.662;8.408;2023-02-01T09:23:21;30.63;;;22.57;;
69172;SDS011;56280;49.662;8.408;2023-02-01T09:25:47;32.80;;;23.83;;
69172;SDS011;56280;49.662;8.408;2023-02-01T09:28:15;32.25;;;23.63;;
69172;SDS011;56280;49.662;8.408;2023-02-01T09:30:40;29.27;;;21.63;;
69172;SDS011;56280;49.662;8.408;2023-02-01T09:33:05;27.13;;;21.43;;
69172;SDS011;56280;49.662;8.408;2023-02-01T09:35:31;22.95;;;20.63;;
69172;SDS011;56280;49.662;8.408;2023-02-01T09:37:56;21.40;;;19.20;;
69172;SDS011;56280;49.662;8.408;2023-02-01T09:40:21;21.87;;;19.17;;
69172;SDS011;56280;49.662;8.408;2023-02-01T09:45:51;19.30;;;17.42;;
69172;SDS011;56280;49.662;8.408;2023-02-01T09:48:43;22.70;;;18.50;;
69172;SDS011;56280;49.662;8.408;2023-02-01T09:51:19;18.05;;;15.65;;
69172;SDS011;56280;49.662;8.408;2023-02-01T09:54:02;19.55;;;17.25;;
69172;SDS011;56280;49.662;8.408;2023-02-01T09:56:56;18.42;;;15.70;;
69172;SDS011;56280;49.662;8.408;2023-02-01T09:59:41;17.83;;;15.87;;
69172;SDS011;56280;49.662;8.408;2023-02-01T10:02:19;17.63;;;15.90;;
69172;SDS011;56280;49.662;8.408;2023-02-01T10:04:48;18.55;;;16.05;;
69172;SDS011;56280;49.662;8.408;2023-02-01T10:09:58;18.88;;;16.10;;
69172;SDS011;56280;49.662;8.408;2023-02-01T10:12:44;19.20;;;17.33;;
69172;SDS011;56280;49.662;8.408;2023-02-01T10:18:26;19.55;;;17.38;;
69172;SDS011;56280;49.662;8.408;2023-02-01T10:24:02;17.55;;;15.68;;
69172;SDS011;56280;49.662;8.408;2023-02-01T10:26:38;18.37;;;16.47;;
69172;SDS011;56280;49.662;8.408;2023-02-01T10:29:14;20.83;;;18.65;;
69172;SDS011;56280;49.662;8.408;2023-02-01T10:31:42;19.45;;;17.58;;
69172;SDS011;56280;49.662;8.408;2023-02-01T10:34:14;21.47;;;18.27;;
69172;SDS011;56280;49.662;8.408;2023-02-01T10:37:02;17.43;;;15.23;;
69172;SDS011;56280;49.662;8.408;2023-02-01T10:39:43;20.30;;;15.88;;
69172;SDS011;56280;49.662;8.408;2023-02-01T10:42:10;22.07;;;19.90;;
69172;SDS011;56280;49.662;8.408;2023-02-01T10:44:35;19.63;;;17.60;;
69172;SDS011;56280;49.662;8.408;2023-02-01T10:47:05;20.15;;;18.05;;
69172;SDS011;56280;49.662;8.408;2023-02-01T10:49:34;19.00;;;17.00;;
69172;SDS011;56280;49.662;8.408;2023-02-01T10:52:10;21.02;;;18.92;;
69172;SDS011;56280;49.662;8.408;2023-02-01T10:54:40;22.05;;;18.15;;
69172;SDS011;56280;49.662;8.408;2023-02-01T10:57:24;21.97;;;19.50;;
69172;SDS011;56280;49.662;8.408;2023-02-01T10:59:53;18.67;;;16.75;;
69172;SDS011;56280;49.662;8.408;2023-02-01T11:02:25;21.67;;;19.20;;
69172;SDS011;56280;49.662;8.408;2023-02-01T11:05:27;18.40;;;15.60;;
69172;SDS011;56280;49.662;8.408;2023-02-01T11:07:50;18.40;;;16.52;;
69172;SDS011;56280;49.662;8.408;2023-02-01T11:13:13;20.75;;;17.40;;
69172;SDS011;56280;49.662;8.408;2023-02-01T11:15:46;20.95;;;18.73;;
69172;SDS011;56280;49.662;8.408;2023-02-01T11:18:20;20.73;;;18.63;;
69172;SDS011;56280;49.662;8.408;2023-02-01T11:20:51;18.90;;;16.77;;
69172;SDS011;56280;49.662;8.408;2023-02-01T11:23:19;22.95;;;17.60;;
69172;SDS011;56280;49.662;8.408;2023-02-01T11:28:34;19.17;;;17.17;;
69172;SDS011;56280;49.662;8.408;2023-02-01T11:31:04;20.20;;;18.20;;
69172;SDS011;56280;49.662;8.408;2023-02-01T11:33:36;19.77;;;16.50;;
69172;SDS011;56280;49.662;8.408;2023-02-01T11:36:07;18.30;;;15.65;;
69172;SDS011;56280;49.662;8.408;2023-02-01T11:38:35;21.85;;;18.42;;
69172;SDS011;56280;49.662;8.408;2023-02-01T11:41:11;21.33;;;18.57;;
69172;SDS011;56280;49.662;8.408;2023-02-01T11:43:40;24.02;;;21.52;;
69172;SDS011;56280;49.662;8.408;2023-02-01T11:46:17;21.42;;;19.27;;
69172;SDS011;56280;49.662;8.408;2023-02-01T11:48:49;22.43;;;19.70;;
69172;SDS011;56280;49.662;8.408;2023-02-01T11:56:55;22.52;;;20.15;;
69172;SDS011;56280;49.662;8.408;2023-02-01T12:05:06;20.58;;;18.38;;
69172;SDS011;56280;49.662;8.408;2023-02-01T12:16:02;22.58;;;20.20;;
69172;SDS011;56280;49.662;8.408;2023-02-01T12:37:38;26.90;;;19.67;;
69172;SDS011;56280;49.662;8.408;2023-02-01T12:40:19;30.23;;;19.95;;
69172;SDS011;56280;49.662;8.408;2023-02-01T12:45:46;28.50;;;19.43;;
69172;SDS011;56280;49.662;8.408;2023-02-01T12:48:35;23.50;;;21.20;;
69172;SDS011;56280;49.662;8.408;2023-02-01T12:51:11;23.35;;;20.80;;
69172;SDS011;56280;49.662;8.408;2023-02-01T12:53:57;24.07;;;19.30;;
69172;SDS011;56280;49.662;8.408;2023-02-01T12:58:57;24.83;;;19.30;;
69172;SDS011;56280;49.662;8.408;2023-02-01T13:01:28;22.63;;;18.67;;
69172;SDS011;56280;49.662;8.408;2023-02-01T13:04:03;21.42;;;18.95;;
69172;SDS011;56280;49.662;8.408;2023-02-01T13:06:53;21.05;;;17.92;;
69172;SDS011;56280;49.662;8.408;2023-02-01T13:09:36;22.43;;;20.20;;
69172;SDS011;56280;49.662;8.408;2023-02-01T13:12:12;28.90;;;26.23;;
69172;SDS011;56280;49.662;8.408;2023-02-01T13:14:43;29.67;;;27.13;;
69172;SDS011;56280;49.662;8.408;2023-02-01T13:17:25;24.48;;;21.75;;
69172;SDS011;56280;49.662;8.408;2023-02-01T13:28:05;18.17;;;16.20;;
69172;SDS011;56280;49.662;8.408;2023-02-01T13:30:46;19.17;;;17.27;;
69172;SDS011;56280;49.662;8.408;2023-02-01T13:33:46;21.07;;;18.87;;
69172;SDS011;56280;49.662;8.408;2023-02-01T13:36:27;19.47;;;17.43;;
69172;SDS011;56280;49.662;8.408;2023-02-01T13:41:53;19.35;;;17.15;;
69172;SDS011;56280;49.662;8.408;2023-02-01T13:44:27;19.75;;;17.67;;
69172;SDS011;56280;49.662;8.408;2023-02-01T13:46:58;22.85;;;20.38;;
69172;SDS011;56280;49.662;8.408;2023-02-01T13:49:28;18.65;;;16.40;;
69172;SDS011;56280;49.662;8.408;2023-02-01T13:51:57;20.10;;;18.00;;
69172;SDS011;56280;49.662;8.408;2023-02-01T13:56:52;20.27;;;16.67;;
69172;SDS011;56280;49.662;8.408;2023-02-01T14:00:05;21.13;;;17.38;;
69172;SDS011;56280;49.662;8.408;2023-02-01T14:05:00;23.23;;;20.80;;
69172;SDS011;56280;49.662;8.408;2023-02-01T14:07:26;20.83;;;18.57;;
69172;SDS011;56280;49.662;8.408;2023-02-01T14:09:51;18.93;;;16.93;;
69172;SDS011;56280;49.662;8.408;2023-02-01T14:15:25;17.33;;;15.45;;
69172;SDS011;56280;49.662;8.408;2023-02-01T14:17:52;19.60;;;16.05;;
69172;SDS011;56280;49.662;8.408;2023-02-01T14:23:11;17.95;;;16.05;;
69172;SDS011;56280;49.662;8.408;2023-02-01T14:25:39;20.05;;;16.17;;
69172;SDS011;56280;49.662;8.408;2023-02-01T14:28:12;18.10;;;16.20;;
69172;SDS011;56280;49.662;8.408;2023-02-01T14:30:49;17.27;;;15.48;;
69172;SDS011;56280;49.662;8.408;2023-02-01T14:33:18;17.77;;;15.93;;
69172;SDS011;56280;49.662;8.408;2023-02-01T14:35:55;17.70;;;15.90;;
69172;SDS011;56280;49.662;8.408;2023-02-01T14:38:27;19.52;;;17.60;;
69172;SDS011;56280;49.662;8.408;2023-02-01T14:40:56;21.10;;;18.85;;
69172;SDS011;56280;49.662;8.408;2023-02-01T14:49:49;19.67;;;15.95;;
69172;SDS011;56280;49.662;8.408;2023-02-01T14:52:23;19.52;;;17.27;;
69172;SDS011;56280;49.662;8.408;2023-02-01T14:55:00;18.92;;;16.00;;
69172;SDS011;56280;49.662;8.408;2023-02-01T14:57:30;18.17;;;16.42;;
69172;SDS011;56280;49.662;8.408;2023-02-01T15:02:56;19.80;;;17.70;;
69172;SDS011;56280;49.662;8.408;2023-02-01T15:05:41;21.33;;;16.85;;
69172;SDS011;56280;49.662;8.408;2023-02-01T15:08:11;18.40;;;16.03;;
69172;SDS011;56280;49.662;8.408;2023-02-01T15:10:42;16.95;;;15.23;;
69172;SDS011;56280;49.662;8.408;2023-02-01T15:13:28;18.05;;;15.95;;
69172;SDS011;56280;49.662;8.408;2023-02-01T15:16:27;18.42;;;16.75;;
69172;SDS011;56280;49.662;8.408;2023-02-01T15:18:50;17.95;;;16.05;;
69172;SDS011;56280;49.662;8.408;2023-02-01T15:21:20;19.65;;;16.98;;
69172;SDS011;56280;49.662;8.408;2023-02-01T15:23:47;19.63;;;16.73;;
69172;SDS011;56280;49.662;8.408;2023-02-01T15:26:29;18.25;;;16.35;;
69172;SDS011;56280;49.662;8.408;2023-02-01T15:28:59;18.35;;;16.45;;
69172;SDS011;56280;49.662;8.408;2023-02-01T15:31:35;20.02;;;18.00;;
69172;SDS011;56280;49.662;8.408;2023-02-01T15:34:09;19.13;;;17.15;;
69172;SDS011;56280;49.662;8.408;2023-02-01T15:36:35;19.33;;;17.23;;
69172;SDS011;56280;49.662;8.408;2023-02-01T15:41:36;19.30;;;17.42;;
69172;SDS011;56280;49.662;8.408;2023-02-01T15:44:08;21.47;;;15.83;;
69172;SDS011;56280;49.662;8.408;2023-02-01T15:46:53;21.67;;;18.45;;
69172;SDS011;56280;49.662;8.408;2023-02-01T15:49:20;19.13;;;17.23;;
69172;SDS011;56280;49.662;8.408;2023-02-01T15:51:54;18.98;;;16.27;;
69172;SDS011;56280;49.662;8.408;2023-02-01T15:54:25;18.10;;;15.70;;
69172;SDS011;56280;49.662;8.408;2023-02-01T15:56:53;19.90;;;17.25;;
69172;SDS011;56280;49.662;8.408;2023-02-01T15:59:24;21.27;;;19.17;;
69172;SDS011;56280;49.662;8.408;2023-02-01T16:01:54;20.92;;;16.40;;
69172;SDS011;56280;49.662;8.408;2023-02-01T16:04:21;19.45;;;17.50;;
69172;SDS011;56280;49.662;8.408;2023-02-01T16:06:52;17.73;;;15.60;;
69172;SDS011;56280;49.662;8.408;2023-02-01T16:09:39;18.73;;;16.80;;
69172;SDS011;56280;49.662;8.408;2023-02-01T16:12:20;20.95;;;16.95;;
69172;SDS011;56280;49.662;8.408;2023-02-01T16:15:07;20.77;;;18.67;;
69172;SDS011;56280;49.662;8.408;2023-02-01T16:17:33;18.63;;;16.70;;
69172;SDS011;56280;49.662;8.408;2023-02-01T16:19:58;19.00;;;16.90;;
69172;SDS011;56280;49.662;8.408;2023-02-01T16:22:23;21.37;;;19.27;;
69172;SDS011;56280;49.662;8.408;2023-02-01T16:24:49;22.40;;;20.20;;
69172;SDS011;56280;49.662;8.408;2023-02-01T16:27:15;22.83;;;20.43;;
69172;SDS011;56280;49.662;8.408;2023-02-01T16:29:40;24.63;;;21.33;;
69172;SDS011;56280;49.662;8.408;2023-02-01T16:32:06;18.47;;;16.60;;
69172;SDS011;56280;49.662;8.408;2023-02-01T16:34:34;23.15;;;20.88;;
69172;SDS011;56280;49.662;8.408;2023-02-01T16:37:00;20.80;;;16.80;;
69172;SDS011;56280;49.662;8.408;2023-02-01T16:39:27;20.63;;;18.63;;
69172;SDS011;56280;49.662;8.408;2023-02-01T16:41:53;27.63;;;25.00;;